Time;durP1;ratioP1;P1;durP2;ratioP2;P2;SDS_P1;SDS_P2;PMS_P1;PMS_P2;Temp;Humidity;BMP_temperature;BMP_pressure;BME280_temperature;BME280_humidity;BME280_pressure;Samples;Min_cycle;Max_cycle;Signal;HPM_P1;HPM_P2
2021/08/13 00:02:11;;;;;;;11.95;10.95;;;;;;;22.77;60.46;101809.88;5921865;29;20241;-58
2021/08/13 00:05:33;;;;;;;12.10;11.05;;;;;;;22.67;60.47;101815.69;5922219;29;20624;-57
2021/08/13 00:08:54;;;;;;;11.07;9.98;;;;;;;22.59;61.03;101814.22;5921533;29;20245;-59
2021/08/13 00:12:15;;;;;;;13.32;12.13;;;;;;;22.92;60.23;101811.00;5918574;29;22839;-58
2021/08/13 00:15:36;;;;;;;11.98;10.90;;;;;;;22.98;59.64;101804.53;5924084;29;20237;-59
2021/08/13 00:18:57;;;;;;;11.98;10.88;;;;;;;22.82;60.62;101801.72;5920397;29;20265;-58
2021/08/13 00:22:19;;;;;;;11.30;10.25;;;;;;;22.73;61.15;101804.78;5922489;29;20238;-60
2021/08/13 00:25:40;;;;;;;12.80;11.73;;;;;;;22.77;60.70;101798.41;5921156;29;21112;-57
2021/08/13 00:29:01;;;;;;;11.60;10.68;;;;;;;22.77;60.53;101801.06;5921107;29;20240;-57
2021/08/13 00:32:22;;;;;;;11.75;10.75;;;;;;;22.87;60.72;101805.00;5919904;29;20788;-59
2021/08/13 00:35:43;;;;;;;12.07;10.98;;;;;;;22.75;60.97;101793.16;5920505;29;20245;-59
2021/08/13 00:39:07;;;;;;;13.02;11.93;;;;;;;22.86;60.71;101795.34;5913647;29;20337;-59
2021/08/13 00:42:29;;;;;;;12.43;11.27;;;;;;;22.83;60.95;101811.41;5920299;29;20237;-58
2021/08/13 00:45:50;;;;;;;14.27;12.98;;;;;;;22.86;60.80;101816.56;5929930;29;20245;-59
2021/08/13 00:49:13;;;;;;;11.68;10.68;;;;;;;22.83;60.09;101811.41;5919561;29;20241;-59
2021/08/13 00:52:52;;;;;;;12.32;11.23;;;;;;;22.83;60.67;101818.50;5931606;29;20233;-59
2021/08/13 00:56:16;;;;;;;12.73;11.50;;;;;;;22.84;60.59;101818.44;5926273;29;20273;-59
2021/08/13 01:00:00;;;;;;;12.10;11.00;;;;;;;22.91;60.71;101821.66;5919737;29;20644;-58
2021/08/13 01:03:31;;;;;;;12.98;11.82;;;;;;;23.10;59.99;101824.41;5928623;29;20240;-59
2021/08/13 01:06:57;;;;;;;12.45;11.35;;;;;;;22.96;59.70;101827.66;5934085;29;20636;-59
2021/08/13 01:10:20;;;;;;;13.77;12.68;;;;;;;22.82;60.70;101820.31;5918113;29;20241;-58
2021/08/13 01:13:55;;;;;;;13.98;12.70;;;;;;;22.87;60.54;101825.41;5919099;29;20260;-58
2021/08/13 01:17:21;;;;;;;14.00;12.48;;;;;;;22.84;60.73;101842.34;5921085;29;20229;-57
2021/08/13 01:21:15;;;;;;;13.48;12.27;;;;;;;22.97;60.00;101827.59;5920526;29;20676;-59
2021/08/13 01:24:46;;;;;;;13.98;12.57;;;;;;;22.88;60.45;101830.66;5914885;29;20637;-59
2021/08/13 01:28:20;;;;;;;12.13;11.02;;;;;;;22.96;60.31;101831.16;5930249;29;20316;-58
2021/08/13 01:31:57;;;;;;;14.98;12.43;;;;;;;22.85;60.90;101825.47;5911398;29;20241;-54
2021/08/13 01:35:23;;;;;;;12.65;11.55;;;;;;;22.89;60.72;101821.72;5916462;29;20237;-58
2021/08/13 01:38:45;;;;;;;12.20;11.10;;;;;;;22.81;nan;101824.72;5931065;29;20233;-58
2021/08/13 01:42:08;;;;;;;12.55;11.55;;;;;;;22.81;60.78;101821.22;5929415;29;20245;-57
2021/08/13 01:45:32;;;;;;;12.95;11.85;;;;;;;22.64;61.33;101826.41;5928821;29;20632;-58
2021/08/13 01:48:56;;;;;;;13.45;12.20;;;;;;;22.59;61.26;101835.44;5918858;29;20252;-58
2021/08/13 01:52:23;;;;;;;13.75;12.55;;;;;;;22.72;61.17;101837.56;5930619;29;20245;-58
2021/08/13 01:55:45;;;;;;;15.05;13.65;;;;;;;22.74;60.95;101830.38;5920372;29;20324;-57
2021/08/13 01:59:08;;;;;;;15.13;13.70;;;;;;;22.76;61.09;101823.22;5917280;29;20672;-58
2021/08/13 02:02:30;;;;;;;15.68;12.95;;;;;;;22.94;60.74;101818.88;5929118;29;20244;-58
2021/08/13 02:05:53;;;;;;;13.43;12.23;;;;;;;22.78;61.10;101824.03;5920893;29;20233;-58
2021/08/13 02:09:18;;;;;;;13.80;12.70;;;;;;;22.80;61.13;101822.16;5908592;29;20240;-58
2021/08/13 02:12:39;;;;;;;14.90;13.65;;;;;;;22.84;60.85;101829.06;5913436;29;20233;-57
2021/08/13 02:16:05;;;;;;;14.68;13.38;;;;;;;22.86;61.50;101821.91;5925989;29;21136;-59
2021/08/13 02:19:32;;;;;;;15.40;14.13;;;;;;;22.92;61.15;101813.63;5918900;29;20237;-59
2021/08/13 02:22:53;;;;;;;14.02;12.63;;;;;;;22.93;60.89;101819.81;5930624;29;20234;-59
2021/08/13 02:26:16;;;;;;;17.55;15.90;;;;;;;22.66;61.32;101824.56;5917407;29;20672;-58
2021/08/13 02:29:42;;;;;;;14.57;13.27;;;;;;;22.64;61.57;101829.94;5923567;29;20249;-59
2021/08/13 02:33:06;;;;;;;17.40;15.65;;;;;;;21.80;64.17;101824.56;5919150;29;20324;-58
2021/08/13 02:36:34;;;;;;;16.23;14.88;;;;;;;21.88;64.28;101818.09;5930605;29;20249;-56
2021/08/13 02:40:01;;;;;;;15.88;14.48;;;;;;;22.40;62.29;101818.59;5925527;29;20237;-57
2021/08/13 02:43:30;;;;;;;15.60;14.20;;;;;;;22.30;63.07;101818.13;5917547;29;20571;-58
2021/08/13 02:47:00;;;;;;;16.33;14.98;;;;;;;22.33;63.38;101820.66;5930505;29;20421;-58
2021/08/13 02:50:24;;;;;;;16.30;14.68;;;;;;;22.06;63.72;101814.66;5912334;29;20894;-58
2021/08/13 02:53:48;;;;;;;17.60;16.10;;;;;;;22.15;63.32;101814.28;5920867;29;20335;-57
2021/08/13 02:57:11;;;;;;;16.58;15.15;;;;;;;22.21;63.42;101819.31;5925734;29;20246;-58
2021/08/13 03:00:38;;;;;;;15.88;14.38;;;;;;;22.12;63.89;101814.44;5918940;29;20510;-58
2021/08/13 03:04:01;;;;;;;16.45;14.73;;;;;;;22.24;63.60;101807.75;5931761;29;20611;-58
2021/08/13 03:07:24;;;;;;;17.92;16.35;;;;;;;22.32;63.33;101800.34;5908860;29;20237;-56
2021/08/13 03:10:45;;;;;;;17.73;16.13;;;;;;;22.17;63.74;101806.28;5918765;29;20237;-57
2021/08/13 03:14:12;;;;;;;35.50;32.53;;;;;;;22.06;64.15;101801.41;5924004;29;20964;-58
2021/08/13 03:17:35;;;;;;;21.63;19.40;;;;;;;21.98;64.45;101808.81;5916836;29;20588;-55
2021/08/13 03:20:57;;;;;;;20.15;18.42;;;;;;;22.06;63.92;101805.84;5929064;29;20245;-57
2021/08/13 03:24:19;;;;;;;18.40;16.67;;;;;;;22.05;63.89;101797.03;5918022;29;20234;-58
2021/08/13 03:27:41;;;;;;;18.33;16.63;;;;;;;21.95;64.20;101796.56;5918019;29;20908;-56
2021/08/13 03:31:03;;;;;;;22.80;20.67;;;;;;;21.84;64.34;101793.47;5921348;29;20652;-58
2021/08/13 03:34:29;;;;;;;19.98;18.27;;;;;;;21.82;64.46;101796.19;5921593;29;20608;-56
2021/08/13 03:37:51;;;;;;;18.27;16.67;;;;;;;21.55;65.72;101807.91;5930457;29;20246;-58
2021/08/13 03:41:13;;;;;;;19.35;17.70;;;;;;;21.30;66.09;101798.22;5920855;29;20336;-57
2021/08/13 03:44:34;;;;;;;21.25;19.45;;;;;;;21.48;65.78;101803.75;5920432;29;20242;-56
2021/08/13 03:47:56;;;;;;;23.33;21.10;;;;;;;21.47;65.64;101818.81;5916582;29;20694;-55
2021/08/13 03:51:18;;;;;;;27.85;25.35;;;;;;;21.73;64.51;101812.50;5923353;29;20242;-56
2021/08/13 03:54:40;;;;;;;25.00;22.88;;;;;;;21.50;65.47;101804.56;5925303;29;20245;-55
2021/08/13 03:58:02;;;;;;;25.77;23.48;;;;;;;21.67;64.64;101812.72;5922272;29;20925;-56
2021/08/13 04:01:22;;;;;;;20.77;18.88;;;;;;;21.18;66.19;101811.94;5925195;29;20329;-57
2021/08/13 04:04:44;;;;;;;24.10;21.85;;;;;;;21.02;67.25;101807.22;5917029;29;20234;-58
2021/08/13 04:08:07;;;;;;;20.73;18.95;;;;;;;21.04;67.23;101809.81;5923797;29;20605;-58
2021/08/13 04:11:28;;;;;;;21.17;18.90;;;;;;;21.07;67.27;101814.97;5907501;29;20304;-58
2021/08/13 04:14:49;;;;;;;18.90;17.10;;;;;;;21.06;67.08;101809.78;5924872;29;20241;-58
2021/08/13 04:18:10;;;;;;;20.10;18.40;;;;;;;20.48;69.23;101818.84;5922666;29;20246;-57
2021/08/13 04:21:32;;;;;;;21.48;19.48;;;;;;;20.84;68.02;101818.50;5914275;29;20241;-57
2021/08/13 04:24:54;;;;;;;19.90;18.08;;;;;;;20.96;67.55;101820.69;5918235;29;20242;-57
2021/08/13 04:28:15;;;;;;;20.50;18.63;;;;;;;21.06;67.25;101825.66;5935188;29;20241;-57
2021/08/13 04:31:36;;;;;;;21.35;19.42;;;;;;;21.15;67.00;101830.59;5915061;29;20234;-57
2021/08/13 04:34:57;;;;;;;20.63;18.48;;;;;;;21.01;67.34;101839.94;5924742;29;20328;-56
2021/08/13 04:38:22;;;;;;;22.15;19.98;;;;;;;20.86;67.79;101819.31;5924006;29;20236;-57
2021/08/13 04:41:44;;;;;;;20.27;18.13;;;;;;;21.15;67.00;101820.88;5912388;29;20242;-57
2021/08/13 04:45:07;;;;;;;19.40;17.70;;;;;;;20.89;67.56;101816.53;5922502;29;20632;-58
2021/08/13 04:48:29;;;;;;;20.95;19.10;;;;;;;21.09;66.93;101820.22;5924536;29;20290;-56
2021/08/13 04:51:51;;;;;;;20.25;18.33;;;;;;;20.73;68.68;101833.91;5921712;29;20246;-59
2021/08/13 04:55:13;;;;;;;22.33;20.38;;;;;;;20.53;68.82;101835.44;5904724;29;20244;-58
2021/08/13 04:58:35;;;;;;;21.63;19.75;;;;;;;21.11;67.07;101828.97;5914750;29;20910;-59
2021/08/13 05:01:57;;;;;;;23.17;20.73;;;;;;;21.03;67.15;101831.91;5928751;29;20242;-58
2021/08/13 05:05:19;;;;;;;22.00;20.17;;;;;;;21.21;66.66;101830.38;5912844;29;20609;-56
2021/08/13 05:08:40;;;;;;;21.25;19.20;;;;;;;21.47;65.59;101828.56;5931799;29;20244;-58
2021/08/13 05:12:01;;;;;;;21.70;19.60;;;;;;;21.53;65.11;101821.22;5920722;29;20245;-57
2021/08/13 05:15:24;;;;;;;21.75;19.65;;;;;;;21.42;65.52;101826.91;5920840;29;20237;-59
2021/08/13 05:18:45;;;;;;;21.77;19.67;;;;;;;21.17;66.62;101829.63;5915437;29;20261;-59
2021/08/13 05:22:10;;;;;;;21.77;19.73;;;;;;;21.33;66.11;101829.91;5917114;29;20605;-58
2021/08/13 05:25:32;;;;;;;21.35;19.30;;;;;;;21.06;66.93;101841.53;5926272;29;20240;-59
2021/08/13 05:28:53;;;;;;;20.80;18.73;;;;;;;21.11;66.50;101844.88;5911401;29;20242;-57
2021/08/13 05:32:18;;;;;;;20.90;18.73;;;;;;;21.43;65.77;101835.72;5911101;29;20241;-59
2021/08/13 05:35:40;;;;;;;21.02;19.13;;;;;;;21.15;65.86;101843.84;5937395;29;20242;-58
2021/08/13 05:39:02;;;;;;;19.98;17.83;;;;;;;21.60;64.75;101838.59;5913457;29;20471;-59
2021/08/13 05:42:23;;;;;;;21.90;19.77;;;;;;;21.87;63.41;101826.94;5919525;29;20237;-58
2021/08/13 05:45:44;;;;;;;20.77;18.80;;;;;;;21.83;63.25;101839.50;5925526;29;20425;-57
2021/08/13 05:49:07;;;;;;;17.88;16.15;;;;;;;22.09;61.97;101840.22;5913848;29;20241;-58
2021/08/13 05:52:28;;;;;;;18.30;16.52;;;;;;;22.26;61.69;101842.22;5915502;29;20234;-58
2021/08/13 05:55:49;;;;;;;24.38;17.40;;;;;;;22.39;60.67;101835.44;5925170;29;20232;-59
2021/08/13 05:59:10;;;;;;;18.02;16.10;;;;;;;22.41;60.78;101841.53;5918892;29;20585;-59
2021/08/13 06:02:32;;;;;;;18.83;16.98;;;;;;;22.02;61.70;101839.59;5915264;29;20245;-59
2021/08/13 06:05:54;;;;;;;19.20;17.15;;;;;;;22.53;60.12;101841.03;5920420;29;20242;-60
2021/08/13 06:09:16;;;;;;;16.85;15.02;;;;;;;22.20;59.85;101844.16;5918366;29;20233;-58
2021/08/13 06:12:37;;;;;;;16.48;14.35;;;;;;;22.35;59.50;101839.16;5920908;29;20264;-58
2021/08/13 06:15:59;;;;;;;15.35;13.75;;;;;;;23.02;58.05;101837.13;5936478;29;20252;-59
2021/08/13 06:19:20;;;;;;;17.48;14.35;;;;;;;22.95;57.31;101832.09;5911495;29;20535;-58
2021/08/13 06:22:43;;;;;;;16.27;14.45;;;;;;;22.51;58.42;101837.56;5924474;29;20755;-59
2021/08/13 06:26:05;;;;;;;14.00;12.65;;;;;;;22.95;56.79;101821.50;5917872;29;20233;-56
2021/08/13 06:29:28;;;;;;;15.38;13.30;;;;;;;23.07;56.84;101825.41;5918194;29;20292;-56
2021/08/13 06:32:49;;;;;;;13.35;12.07;;;;;;;23.13;55.78;101821.63;5925710;29;20232;-60
2021/08/13 06:36:11;;;;;;;12.40;11.13;;;;;;;22.68;56.33;101823.59;5928353;29;20848;-58
2021/08/13 06:39:33;;;;;;;15.02;10.60;;;;;;;22.88;55.29;101825.34;5931170;29;20241;-57
2021/08/13 06:42:55;;;;;;;12.63;10.50;;;;;;;22.96;54.85;101825.84;5932254;29;20281;-57
2021/08/13 06:46:20;;;;;;;10.45;9.45;;;;;;;22.96;54.04;101827.66;5928404;29;20240;-58
2021/08/13 06:49:41;;;;;;;10.55;9.40;;;;;;;22.78;54.18;101824.03;5925824;29;20379;-57
2021/08/13 06:53:03;;;;;;;10.40;9.40;;;;;;;22.92;54.61;101823.41;5928779;29;20769;-58
2021/08/13 06:56:26;;;;;;;11.25;9.50;;;;;;;23.22;53.94;101818.50;5905540;29;20661;-59
2021/08/13 06:59:49;;;;;;;15.68;10.57;;;;;;;23.52;52.67;101823.34;5915828;29;20237;-59
2021/08/13 07:03:11;;;;;;;10.77;9.68;;;;;;;23.09;54.06;101827.97;5916073;29;20245;-58
2021/08/13 07:06:33;;;;;;;9.13;8.23;;;;;;;23.41;53.51;101836.25;5929301;29;20245;-59
2021/08/13 07:09:54;;;;;;;9.35;8.45;;;;;;;24.05;51.39;101842.97;5911916;29;20942;-58
2021/08/13 07:13:17;;;;;;;10.98;9.85;;;;;;;23.92;51.58;101816.97;5903712;29;20237;-58
2021/08/13 07:16:38;;;;;;;10.90;9.13;;;;;;;23.47;51.91;101822.69;5928324;29;20233;-58
2021/08/13 07:19:59;;;;;;;8.00;7.20;;;;;;;24.51;50.77;101817.56;5917258;29;20249;-56
2021/08/13 07:23:20;;;;;;;11.60;7.35;;;;;;;24.45;49.93;101836.50;5927132;29;20225;-58
2021/08/13 07:26:42;;;;;;;8.23;7.53;;;;;;;24.38;49.80;101845.72;5918056;29;20238;-58
2021/08/13 07:30:06;;;;;;;8.88;8.07;;;;;;;24.56;48.51;101835.94;5926842;29;20242;-58
2021/08/13 07:33:27;;;;;;;9.07;7.60;;;;;;;24.13;49.50;101836.31;5916532;29;20246;-58
2021/08/13 07:36:48;;;;;;;10.27;7.97;;;;;;;23.79;50.79;101839.78;5916882;29;20246;-57
2021/08/13 07:40:12;;;;;;;8.48;7.47;;;;;;;24.20;50.35;101847.53;5921197;29;20278;-58
2021/08/13 07:43:33;;;;;;;9.18;8.27;;;;;;;24.61;48.79;101847.22;5923812;29;20237;-56
2021/08/13 07:46:56;;;;;;;8.73;7.70;;;;;;;24.46;49.06;101840.00;5935462;29;20242;-58
2021/08/13 07:50:17;;;;;;;9.40;8.50;;;;;;;24.86;48.48;101836.16;5912700;29;20241;-56
2021/08/13 07:53:38;;;;;;;9.35;8.60;;;;;;;24.73;49.15;101835.91;5910346;29;20245;-57
2021/08/13 07:57:00;;;;;;;9.82;8.02;;;;;;;24.44;49.53;101839.22;5920963;29;20257;-65
2021/08/13 08:00:21;;;;;;;9.48;8.60;;;;;;;23.83;49.86;101837.84;5901723;29;20245;-64
2021/08/13 08:03:49;;;;;;;12.57;9.93;;;;;;;24.42;49.29;101838.44;5908363;29;20341;-64
2021/08/13 08:07:10;;;;;;;9.00;8.10;;;;;;;24.06;50.43;101837.56;5902955;29;20241;-64
2021/08/13 08:10:31;;;;;;;10.40;8.73;;;;;;;24.17;50.37;101829.91;5901757;29;20257;-64
2021/08/13 08:13:52;;;;;;;7.78;7.05;;;;;;;25.53;47.15;101834.31;5900140;29;20660;-65
2021/08/13 08:17:12;;;;;;;10.10;9.23;;;;;;;24.96;47.91;101836.50;5906287;29;20332;-64
2021/08/13 08:20:35;;;;;;;8.90;7.78;;;;;;;25.02;48.39;101838.00;5914081;29;20253;-65
2021/08/13 08:23:56;;;;;;;9.57;8.45;;;;;;;25.08;48.10;101843.84;5913384;29;20245;-65
2021/08/13 08:27:17;;;;;;;8.27;7.63;;;;;;;24.95;48.67;101842.78;5906304;29;20678;-65
2021/08/13 08:30:37;;;;;;;10.18;9.27;;;;;;;24.59;48.82;101845.59;5911973;29;20328;-64
2021/08/13 08:33:58;;;;;;;8.02;7.32;;;;;;;24.93;48.18;101850.88;5912447;29;20264;-65
2021/08/13 08:37:21;;;;;;;10.38;9.15;;;;;;;24.81;48.62;101854.16;5915639;29;20798;-64
2021/08/13 08:40:43;;;;;;;11.38;9.35;;;;;;;24.70;48.17;101853.91;5913101;29;20245;-65
2021/08/13 08:44:04;;;;;;;8.57;7.68;;;;;;;25.60;46.81;101834.81;5929391;29;20241;-64
2021/08/13 08:47:25;;;;;;;7.70;7.10;;;;;;;26.13;46.49;101838.91;5929845;29;20238;-65
2021/08/13 08:50:46;;;;;;;8.32;7.65;;;;;;;26.35;44.78;101832.28;5924130;29;20237;-64
2021/08/13 08:54:10;;;;;;;8.85;8.07;;;;;;;25.08;47.64;101832.31;5930222;29;20629;-64
2021/08/13 08:57:34;;;;;;;7.45;6.68;;;;;;;26.29;46.21;101827.31;5926529;29;20245;-65
2021/08/13 09:00:55;;;;;;;8.45;7.68;;;;;;;25.63;46.65;101818.66;5928708;29;20603;-65
2021/08/13 09:04:15;;;;;;;10.98;9.52;;;;;;;25.46;46.86;101811.59;5924173;29;20536;-63
2021/08/13 09:07:36;;;;;;;9.55;8.02;;;;;;;26.15;45.97;101816.59;5926578;29;20249;-65
2021/08/13 09:11:00;;;;;;;11.68;8.85;;;;;;;26.42;45.22;101817.59;5930261;29;20358;-65
2021/08/13 09:14:20;;;;;;;9.07;8.00;;;;;;;25.73;46.04;101814.50;5928356;29;20285;-64
2021/08/13 09:17:41;;;;;;;9.18;8.40;;;;;;;26.46;44.88;101819.16;5925505;29;20253;-65
2021/08/13 09:21:02;;;;;;;7.28;6.57;;;;;;;27.14;43.76;101812.31;5928036;29;20236;-65
2021/08/13 09:24:23;;;;;;;11.32;8.95;;;;;;;25.58;46.69;101823.38;5922592;29;20241;-68
2021/08/13 09:27:47;;;;;;;8.02;7.22;;;;;;;25.91;46.39;101817.94;5927841;29;20233;-64
2021/08/13 09:31:26;;;;;;;8.75;7.93;;;;;;;26.37;45.13;101825.06;5920190;29;20238;-64
2021/08/13 09:34:49;;;;;;;8.40;7.60;;;;;;;26.69;43.91;101832.94;5923257;29;20241;-66
2021/08/13 09:38:11;;;;;;;9.90;8.90;;;;;;;26.21;44.76;101833.13;5917093;29;20238;-66
2021/08/13 09:41:44;;;;;;;8.93;8.02;;;;;;;25.88;45.94;101843.91;5917834;29;20237;-65
2021/08/13 09:45:08;;;;;;;9.52;8.60;;;;;;;26.23;44.99;101827.66;5918671;29;20800;-65
2021/08/13 09:48:30;;;;;;;8.52;7.82;;;;;;;26.87;43.35;101828.28;5922078;29;20261;-67
2021/08/13 09:51:51;;;;;;;8.85;8.05;;;;;;;25.95;45.15;101833.78;5927149;29;20245;-65
2021/08/13 09:55:14;;;;;;;8.45;7.75;;;;;;;26.02;45.09;101828.00;5922887;29;20569;-67
2021/08/13 09:58:36;;;;;;;8.32;7.53;;;;;;;27.29;42.92;101829.22;5921770;29;20245;-64
2021/08/13 10:01:59;;;;;;;7.95;7.03;;;;;;;27.54;41.91;101823.16;5921675;29;20264;-64
2021/08/13 10:05:23;;;;;;;9.32;7.10;;;;;;;27.65;41.32;101820.66;5920115;29;20596;-65
2021/08/13 10:08:45;;;;;;;8.20;7.38;;;;;;;27.74;41.40;101819.16;5914257;29;20229;-65
2021/08/13 10:12:08;;;;;;;7.80;6.75;;;;;;;27.03;42.23;101822.84;5925427;29;20229;-65
2021/08/13 10:15:36;;;;;;;10.27;8.38;;;;;;;26.53;43.29;101822.31;5919165;29;20297;-65
2021/08/13 10:19:01;;;;;;;8.50;7.75;;;;;;;27.30;41.91;101814.94;5923464;29;20257;-65
2021/08/13 10:22:26;;;;;;;8.57;7.70;;;;;;;26.08;44.30;101830.31;5927681;29;20267;-65
2021/08/13 10:25:47;;;;;;;9.05;8.15;;;;;;;26.88;42.65;101814.81;5912269;29;20255;-65
2021/08/13 10:29:12;;;;;;;8.10;7.30;;;;;;;27.65;41.86;101820.66;5921611;29;20273;-65
2021/08/13 10:32:34;;;;;;;7.78;7.15;;;;;;;27.54;41.75;101825.00;5908092;29;20233;-66
2021/08/13 10:35:59;;;;;;;8.60;7.80;;;;;;;27.72;41.63;101822.91;5907575;29;20237;-64
2021/08/13 10:39:24;;;;;;;11.45;7.55;;;;;;;26.71;44.05;101815.00;5912044;29;20246;-62
2021/08/13 10:42:46;;;;;;;8.43;7.65;;;;;;;27.30;42.42;101805.06;5913543;29;20250;-61
2021/08/13 10:46:12;;;;;;;9.18;8.15;;;;;;;27.77;41.85;101794.91;5913259;29;20233;-65
2021/08/13 10:49:35;;;;;;;8.35;7.55;;;;;;;26.76;44.40;101794.22;5931049;29;20238;-70
2021/08/13 10:52:58;;;;;;;8.20;6.93;;;;;;;28.43;41.15;101801.16;5916828;29;20309;-73
2021/08/13 10:56:38;;;;;;;10.93;7.32;;;;;;;28.57;40.84;101799.38;5928057;29;20329;-71
2021/08/13 11:00:02;;;;;;;9.35;7.88;;;;;;;27.61;42.12;101796.88;5913940;29;20276;-71
2021/08/13 11:03:23;;;;;;;7.95;7.18;;;;;;;28.79;40.28;101786.19;5935431;29;20237;-73
2021/08/13 11:06:47;;;;;;;8.80;7.93;;;;;;;27.94;41.41;101784.94;5939416;29;20495;-71
2021/08/13 11:10:57;;;;;;;8.27;7.57;;;;;;;27.55;42.73;101787.44;5927428;29;20323;-71
2021/08/13 11:14:24;;;;;;;8.25;7.55;;;;;;;27.41;43.09;101784.78;5943956;29;20241;-71
2021/08/13 11:17:46;;;;;;;8.68;7.90;;;;;;;27.21;44.02;101784.25;5929512;29;20245;-71
2021/08/13 11:21:30;;;;;;;9.00;8.20;;;;;;;27.29;43.97;101787.31;5924005;29;20785;-71
2021/08/13 11:24:53;;;;;;;11.77;8.50;;;;;;;26.90;44.63;101791.53;5931334;29;20260;-70
2021/08/13 11:28:23;;;;;;;9.10;8.23;;;;;;;26.53;44.94;101785.75;5919914;29;20242;-68
2021/08/13 11:31:56;;;;;;;9.38;7.50;;;;;;;27.16;43.72;101780.13;5923466;29;20324;-68
2021/08/13 11:35:36;;;;;;;8.13;7.18;;;;;;;27.85;41.95;101778.34;5931253;29;20249;-68
2021/08/13 11:38:59;;;;;;;8.82;7.28;;;;;;;27.94;41.84;101775.06;5924321;29;20249;-69
2021/08/13 11:42:22;;;;;;;7.80;7.10;;;;;;;27.87;41.89;101771.91;5923691;29;20233;-68
2021/08/13 11:45:46;;;;;;;11.90;7.35;;;;;;;28.53;40.69;101771.09;5911698;29;20249;-68
2021/08/13 11:49:15;;;;;;;7.78;6.90;;;;;;;27.38;42.46;101775.16;5921191;29;20244;-67
2021/08/13 11:52:36;;;;;;;8.00;7.20;;;;;;;27.44;42.33;101776.59;5915363;29;20238;-68
2021/08/13 11:55:58;;;;;;;8.73;7.55;;;;;;;28.36;40.82;101764.19;5936165;29;20237;-68
2021/08/13 11:59:20;;;;;;;8.77;7.70;;;;;;;28.21;41.74;101764.31;5916110;29;20629;-67
2021/08/13 12:02:42;;;;;;;8.68;7.82;;;;;;;27.27;42.42;101773.19;5926567;29;20316;-68
2021/08/13 12:06:15;;;;;;;8.07;7.28;;;;;;;27.96;41.68;101765.13;5929859;29;20253;-68
2021/08/13 12:09:40;;;;;;;8.88;7.93;;;;;;;28.77;39.74;101772.03;5924173;29;20518;-67
2021/08/13 12:13:06;;;;;;;11.68;8.68;;;;;;;28.44;40.15;101762.72;5922934;29;20387;-68
2021/08/13 12:16:27;;;;;;;10.07;8.02;;;;;;;28.99;39.48;101765.13;5920847;29;20250;-68
2021/08/13 12:19:56;;;;;;;7.95;7.13;;;;;;;28.95;39.64;101764.50;5935696;29;20241;-67
2021/08/13 12:23:18;;;;;;;9.05;8.20;;;;;;;29.15;39.01;101759.53;5917022;29;20234;-68
2021/08/13 12:26:39;;;;;;;8.43;7.65;;;;;;;27.73;41.67;101774.66;5934847;29;20620;-68
2021/08/13 12:30:00;;;;;;;8.70;8.00;;;;;;;27.81;42.38;101760.78;5923576;29;20249;-69
2021/08/13 12:33:21;;;;;;;9.23;8.13;;;;;;;29.32;39.48;101755.63;5924524;29;20257;-69
2021/08/13 12:36:45;;;;;;;8.65;7.72;;;;;;;27.77;42.76;101765.47;5926171;29;20237;-68
2021/08/13 12:40:09;;;;;;;9.13;8.32;;;;;;;28.64;41.43;101765.84;5927974;29;20355;-68
2021/08/13 12:43:31;;;;;;;11.80;9.77;;;;;;;28.80;41.35;101773.63;5921991;29;20672;-68
2021/08/13 12:46:52;;;;;;;9.43;8.52;;;;;;;28.59;41.36;101773.34;5939565;29;20248;-68
2021/08/13 12:50:15;;;;;;;10.38;9.38;;;;;;;28.30;42.50;101776.19;5918071;29;20242;-67
2021/08/13 12:53:40;;;;;;;9.20;8.40;;;;;;;28.20;42.68;101780.47;5926233;29;20343;-67
2021/08/13 12:57:10;;;;;;;11.65;9.55;;;;;;;27.19;44.60;101770.13;5933454;29;20237;-68
2021/08/13 13:00:32;;;;;;;8.80;8.05;;;;;;;27.85;43.20;101775.66;5933691;29;20252;-68
2021/08/13 13:04:05;;;;;;;10.55;8.52;;;;;;;27.71;42.85;101775.72;5927242;29;20329;-68
2021/08/13 13:07:31;;;;;;;9.13;8.32;;;;;;;27.40;43.55;101767.91;5928501;29;20269;-68
2021/08/13 13:10:55;;;;;;;10.35;9.32;;;;;;;27.04;44.28;101765.75;5933316;29;20229;-69
2021/08/13 13:14:17;;;;;;;8.75;8.05;;;;;;;27.42;43.84;101767.81;5918874;29;20237;-68
2021/08/13 13:17:54;;;;;;;8.85;7.95;;;;;;;30.93;36.91;101751.31;5934081;29;20245;-68
2021/08/13 13:21:23;;;;;;;11.85;8.02;;;;;;;33.39;32.21;101753.63;5928584;29;20372;-68
2021/08/13 13:24:44;;;;;;;8.80;7.90;;;;;;;31.32;36.19;101756.25;5933291;29;20245;-68
2021/08/13 13:28:29;;;;;;;8.93;8.02;;;;;;;30.83;37.00;101758.38;5924343;29;20256;-68
2021/08/13 13:32:16;;;;;;;10.88;9.77;;;;;;;31.13;35.57;101748.81;5926771;29;20253;-67
2021/08/13 13:36:05;;;;;;;11.13;10.05;;;;;;;29.07;40.60;101762.75;5911897;29;20244;-66
2021/08/13 13:39:30;;;;;;;9.35;8.55;;;;;;;29.31;39.99;101743.19;5924556;29;20702;-68
2021/08/13 13:42:52;;;;;;;10.10;9.07;;;;;;;28.82;41.21;101748.44;5930325;29;20616;-67
2021/08/13 13:46:14;;;;;;;9.90;8.88;;;;;;;28.15;42.54;101758.50;5930793;29;21126;-67
2021/08/13 13:49:35;;;;;;;13.43;9.98;;;;;;;29.00;41.21;101756.13;5925761;29;20241;-68
2021/08/13 13:52:57;;;;;;;10.65;9.68;;;;;;;29.00;40.78;101750.75;5931231;29;20260;-68
2021/08/13 13:56:17;;;;;;;10.55;9.68;;;;;;;28.60;42.28;101745.59;5926520;29;20325;-68
2021/08/13 13:59:38;;;;;;;12.38;11.05;;;;;;;28.79;41.27;101748.66;5929583;29;22028;-69
2021/08/13 14:03:01;;;;;;;12.27;10.93;;;;;;;30.19;38.59;101729.38;5925981;29;20225;-68
2021/08/13 14:06:23;;;;;;;9.77;8.88;;;;;;;32.10;33.67;101738.06;5927456;29;20245;-68
2021/08/13 14:09:44;;;;;;;10.90;9.82;;;;;;;30.75;35.82;101728.56;5925103;29;20627;-68
2021/08/13 14:13:05;;;;;;;10.63;9.73;;;;;;;28.75;39.31;101732.91;5933348;29;20237;-67
2021/08/13 14:16:27;;;;;;;10.65;9.70;;;;;;;30.54;36.76;101728.47;5938752;29;20241;-69
2021/08/13 14:19:50;;;;;;;10.50;9.68;;;;;;;30.39;37.71;101719.78;5930190;29;20546;-69
2021/08/13 14:23:11;;;;;;;10.50;9.38;;;;;;;29.74;38.19;101721.19;5932101;29;20237;-68
2021/08/13 14:26:34;;;;;;;12.07;9.60;;;;;;;29.46;38.70;101715.22;5917931;29;20265;-69
2021/08/13 14:29:56;;;;;;;9.75;8.73;;;;;;;29.45;38.50;101713.50;5926417;29;20241;-69
2021/08/13 14:33:18;;;;;;;9.70;8.50;;;;;;;29.66;38.67;101705.63;5923803;29;20606;-69
2021/08/13 14:36:42;;;;;;;9.35;8.65;;;;;;;29.41;38.52;101718.25;5922018;29;20241;-68
2021/08/13 14:40:07;;;;;;;9.68;8.85;;;;;;;29.03;39.35;101713.84;5935471;29;20249;-69
2021/08/13 14:43:28;;;;;;;10.18;9.27;;;;;;;27.45;42.08;101712.31;5923752;29;20242;-68
2021/08/13 14:46:49;;;;;;;7.75;7.00;;;;;;;28.18;40.73;101718.97;5921679;29;20233;-69
2021/08/13 14:50:11;;;;;;;11.05;9.57;;;;;;;27.81;41.60;101725.97;5923610;29;20245;-67
2021/08/13 14:53:34;;;;;;;8.93;8.07;;;;;;;27.60;42.82;101723.78;5925840;29;20242;-69
2021/08/13 14:56:55;;;;;;;9.07;8.30;;;;;;;28.35;41.00;101717.81;5927722;29;20233;-69
2021/08/13 15:00:18;;;;;;;9.30;8.38;;;;;;;27.72;42.15;101735.47;5927424;29;20265;-69
2021/08/13 15:03:39;;;;;;;8.75;8.00;;;;;;;27.53;42.95;101727.84;5933088;29;20440;-69
2021/08/13 15:07:01;;;;;;;9.90;8.23;;;;;;;27.63;43.85;101723.59;5934262;29;20250;-68
2021/08/13 15:10:23;;;;;;;8.13;7.22;;;;;;;27.67;43.94;101743.81;5911737;29;20642;-68
2021/08/13 15:13:45;;;;;;;7.47;6.78;;;;;;;27.62;44.24;101743.25;5929472;29;20596;-71
2021/08/13 15:17:06;;;;;;;7.25;5.93;;;;;;;27.46;44.45;101750.59;5923431;29;20264;-71
2021/08/13 15:20:27;;;;;;;7.80;5.60;;;;;;;26.97;45.36;101740.34;5920217;29;20237;-71
2021/08/13 15:23:48;;;;;;;5.57;5.10;;;;;;;27.14;45.16;101750.81;5921633;29;20241;-73
2021/08/13 15:27:11;;;;;;;6.18;4.97;;;;;;;27.39;44.42;101759.97;5916393;29;20229;-72
2021/08/13 15:30:32;;;;;;;6.18;5.57;;;;;;;27.09;46.01;101758.31;5915922;29;20245;-62
2021/08/13 15:33:53;;;;;;;5.43;4.85;;;;;;;26.71;47.04;101765.13;5933638;29;20375;-64
2021/08/13 15:37:14;;;;;;;5.40;4.47;;;;;;;26.36;47.10;101777.06;5928137;29;20245;-67